Deschaillons-Sur-Saint-Laurent, Canada
Current Conditions -  °F | °C
As of 3:00 PM on Tuesday 25 Nov 2014 (Local Time) from CYRQ Reporting Station
Overcast Overcast  
Wind Chill:   Ceiling: 6500
Heat Index:   Visibility: 9mi
Dew Point:   Wind: 17mph
Humidity: 66%   Direction: 230°SW
Pressure: 29.77"   Gusts: 24mph
Location:  46.55°N, 72.12°W
Report Text: CYRQ 252000Z AUTO 23015G21KT 9SM FEW049 BKN065 OVC074 06/M00 A2977 RMK SLP084
Loading
Personal Weather Stations






























Interactive Weather Map New forecast layout! Learn more

10-Day Weather Forecast

Advertisements
Track Severe Weather on mobile